sensor_id;sensor_type;location;lat;lon;timestamp;pressure;altitude;pressure_sealevel;temperature;humidity
16100;BME280;8154;50.830;12.082;2023-03-04T00:00:23;99967.06;;;20.93;30.93
16100;BME280;8154;50.830;12.082;2023-03-04T00:02:49;99973.91;;;21.04;30.90
16100;BME280;8154;50.830;12.082;2023-03-04T00:05:17;99972.59;;;21.08;30.71
16100;BME280;8154;50.830;12.082;2023-03-04T00:07:43;99969.59;;;21.03;30.88
16100;BME280;8154;50.830;12.082;2023-03-04T00:10:09;99970.28;;;20.97;30.91
16100;BME280;8154;50.830;12.082;2023-03-04T00:12:36;99963.44;;;20.94;30.95
16100;BME280;8154;50.830;12.082;2023-03-04T00:15:02;99965.75;;;20.89;30.90
16100;BME280;8154;50.830;12.082;2023-03-04T00:17:28;99963.09;;;20.89;31.05
16100;BME280;8154;50.830;12.082;2023-03-04T00:19:56;99961.94;;;20.84;31.00
16100;BME280;8154;50.830;12.082;2023-03-04T00:22:23;99964.91;;;20.81;31.16
16100;BME280;8154;50.830;12.082;2023-03-04T00:24:49;99958.47;;;20.83;30.90
16100;BME280;8154;50.830;12.082;2023-03-04T00:27:15;99960.94;;;20.93;31.02
16100;BME280;8154;50.830;12.082;2023-03-04T00:29:41;99963.44;;;21.02;30.87
16100;BME280;8154;50.830;12.082;2023-03-04T00:32:07;99961.28;;;20.98;30.87
16100;BME280;8154;50.830;12.082;2023-03-04T00:34:33;99965.63;;;20.99;30.85
16100;BME280;8154;50.830;12.082;2023-03-04T00:36:59;99960.47;;;20.97;30.79
16100;BME280;8154;50.830;12.082;2023-03-04T00:39:27;99965.25;;;20.94;31.00
16100;BME280;8154;50.830;12.082;2023-03-04T02:44:21;99818.78;;;20.89;30.79
16100;BME280;8154;50.830;12.082;2023-03-04T02:46:49;99808.84;;;20.83;30.88
16100;BME280;8154;50.830;12.082;2023-03-04T02:49:16;99817.47;;;20.85;30.95
16100;BME280;8154;50.830;12.082;2023-03-04T02:51:42;99813.16;;;20.84;30.88
16100;BME280;8154;50.830;12.082;2023-03-04T02:54:18;99813.13;;;20.92;30.58
16100;BME280;8154;50.830;12.082;2023-03-04T02:56:50;99808.19;;;20.97;30.83
16100;BME280;8154;50.830;12.082;2023-03-04T02:59:17;99806.81;;;21.01;30.78
16100;BME280;8154;50.830;12.082;2023-03-04T03:01:43;99805.34;;;21.06;30.52
16100;BME280;8154;50.830;12.082;2023-03-04T03:04:09;99805.16;;;21.08;30.49
16100;BME280;8154;50.830;12.082;2023-03-04T03:06:36;99806.19;;;20.99;30.77
16100;BME280;8154;50.830;12.082;2023-03-04T03:09:02;99800.22;;;20.97;30.69
16100;BME280;8154;50.830;12.082;2023-03-04T03:11:28;99798.69;;;20.94;30.81
16100;BME280;8154;50.830;12.082;2023-03-04T03:13:54;99793.25;;;20.88;30.74
16100;BME280;8154;50.830;12.082;2023-03-04T03:16:20;99808.84;;;20.83;30.98
16100;BME280;8154;50.830;12.082;2023-03-04T03:18:46;99796.03;;;20.94;30.80
16100;BME280;8154;50.830;12.082;2023-03-04T03:21:12;99791.22;;;20.98;30.81
16100;BME280;8154;50.830;12.082;2023-03-04T03:23:39;99788.41;;;20.99;30.65
16100;BME280;8154;50.830;12.082;2023-03-04T03:26:04;99793.53;;;21.01;30.74
16100;BME280;8154;50.830;12.082;2023-03-04T03:28:31;99791.56;;;21.03;30.68
16100;BME280;8154;50.830;12.082;2023-03-04T03:30:57;99787.59;;;20.99;30.72
16100;BME280;8154;50.830;12.082;2023-03-04T03:33:23;99789.88;;;20.94;30.79
16100;BME280;8154;50.830;12.082;2023-03-04T03:35:49;99782.78;;;20.86;30.94
16100;BME280;8154;50.830;12.082;2023-03-04T03:38:15;99780.28;;;20.85;30.86
16100;BME280;8154;50.830;12.082;2023-03-04T03:40:41;99775.97;;;20.84;30.99
16100;BME280;8154;50.830;12.082;2023-03-04T05:42:29;99792.06;;;20.90;30.75
16100;BME280;8154;50.830;12.082;2023-03-04T05:44:55;99790.56;;;20.88;30.89
16100;BME280;8154;50.830;12.082;2023-03-04T05:47:21;99790.91;;;20.93;30.74
16100;BME280;8154;50.830;12.082;2023-03-04T05:49:47;99780.59;;;20.98;30.73
16100;BME280;8154;50.830;12.082;2023-03-04T05:52:13;99787.53;;;21.07;30.52
16100;BME280;8154;50.830;12.082;2023-03-04T05:54:39;99775.59;;;21.03;30.73
16100;BME280;8154;50.830;12.082;2023-03-04T05:57:05;99786.06;;;21.04;30.52
16100;BME280;8154;50.830;12.082;2023-03-04T05:59:31;99772.94;;;21.03;30.53
16100;BME280;8154;50.830;12.082;2023-03-04T06:01:57;99779.63;;;20.99;30.71
16100;BME280;8154;50.830;12.082;2023-03-04T06:04:23;99785.28;;;20.96;30.78
16100;BME280;8154;50.830;12.082;2023-03-04T06:06:49;99782.25;;;20.91;30.71
16100;BME280;8154;50.830;12.082;2023-03-04T06:09:15;99795.06;;;20.87;30.90
16100;BME280;8154;50.830;12.082;2023-03-04T06:11:41;99784.56;;;20.94;30.74
16100;BME280;8154;50.830;12.082;2023-03-04T06:14:07;99783.91;;;21.00;30.63
16100;BME280;8154;50.830;12.082;2023-03-04T06:16:33;99778.09;;;21.04;30.57
16100;BME280;8154;50.830;12.082;2023-03-04T06:18:58;99782.22;;;21.07;30.59
16100;BME280;8154;50.830;12.082;2023-03-04T06:21:24;99781.94;;;21.02;30.53
16100;BME280;8154;50.830;12.082;2023-03-04T06:23:50;99780.41;;;21.07;30.48
16100;BME280;8154;50.830;12.082;2023-03-04T06:26:16;99781.25;;;21.08;30.52
16100;BME280;8154;50.830;12.082;2023-03-04T06:28:43;99787.59;;;20.99;30.68
16100;BME280;8154;50.830;12.082;2023-03-04T06:31:10;99785.09;;;20.97;30.74
16100;BME280;8154;50.830;12.082;2023-03-04T06:33:36;99783.25;;;20.90;30.78
16100;BME280;8154;50.830;12.082;2023-03-04T06:36:02;99782.44;;;20.89;30.92
16100;BME280;8154;50.830;12.082;2023-03-04T06:38:29;99790.59;;;20.96;30.62
16100;BME280;8154;50.830;12.082;2023-03-04T06:40:55;99794.38;;;21.01;30.53
16100;BME280;8154;50.830;12.082;2023-03-04T10:45:54;99711.28;;;21.15;30.49
16100;BME280;8154;50.830;12.082;2023-03-04T10:48:27;99712.75;;;21.18;30.46
16100;BME280;8154;50.830;12.082;2023-03-04T10:51:10;99706.13;;;21.14;30.65
16100;BME280;8154;50.830;12.082;2023-03-04T10:53:39;99707.06;;;21.21;30.48
16100;BME280;8154;50.830;12.082;2023-03-04T10:59:31;99698.81;;;21.16;30.49
16100;BME280;8154;50.830;12.082;2023-03-04T11:01:59;99697.13;;;21.15;30.59
16100;BME280;8154;50.830;12.082;2023-03-04T11:04:31;99706.66;;;21.09;30.60
16100;BME280;8154;50.830;12.082;2023-03-04T11:06:58;99697.13;;;21.15;30.47
16100;BME280;8154;50.830;12.082;2023-03-04T11:09:26;99699.75;;;21.23;30.47
16100;BME280;8154;50.830;12.082;2023-03-04T11:11:55;99687.84;;;21.19;30.51
16100;BME280;8154;50.830;12.082;2023-03-04T11:14:45;99685.81;;;21.21;30.58
16100;BME280;8154;50.830;12.082;2023-03-04T11:17:27;99682.16;;;21.22;30.46
16100;BME280;8154;50.830;12.082;2023-03-04T11:22:27;99677.22;;;21.19;30.55
16100;BME280;8154;50.830;12.082;2023-03-04T11:24:58;99673.88;;;21.17;30.59
16100;BME280;8154;50.830;12.082;2023-03-04T11:27:47;99669.94;;;21.13;30.54
16100;BME280;8154;50.830;12.082;2023-03-04T11:30:36;99672.25;;;21.16;30.63
16100;BME280;8154;50.830;12.082;2023-03-04T11:33:20;99660.47;;;21.10;30.65
16100;BME280;8154;50.830;12.082;2023-03-04T11:38:38;99669.22;;;21.19;30.47
16100;BME280;8154;50.830;12.082;2023-03-04T11:41:34;99666.56;;;21.19;30.47
16100;BME280;8154;50.830;12.082;2023-03-04T11:44:00;99668.69;;;21.24;30.51
16100;BME280;8154;50.830;12.082;2023-03-04T12:48:18;99606.78;;;21.15;30.75
16100;BME280;8154;50.830;12.082;2023-03-04T12:56:39;99604.81;;;21.09;30.72
16100;BME280;8154;50.830;12.082;2023-03-04T12:59:06;99594.19;;;21.09;30.77
16100;BME280;8154;50.830;12.082;2023-03-04T13:01:55;99598.41;;;21.03;30.88
16100;BME280;8154;50.830;12.082;2023-03-04T13:09:56;99597.50;;;21.11;30.68
16100;BME280;8154;50.830;12.082;2023-03-04T13:12:24;99591.19;;;21.12;30.76
16100;BME280;8154;50.830;12.082;2023-03-04T13:17:42;99591.84;;;21.14;30.72
16100;BME280;8154;50.830;12.082;2023-03-04T13:22:55;99578.06;;;21.10;30.74
16100;BME280;8154;50.830;12.082;2023-03-04T13:25:32;99577.09;;;21.11;30.74
16100;BME280;8154;50.830;12.082;2023-03-04T13:41:13;99571.06;;;21.17;30.69
16100;BME280;8154;50.830;12.082;2023-03-04T13:43:42;99573.53;;;21.19;30.58
16100;BME280;8154;50.830;12.082;2023-03-04T15:48:42;99493.81;;;21.34;30.43
16100;BME280;8154;50.830;12.082;2023-03-04T15:51:13;99497.38;;;21.26;30.47
16100;BME280;8154;50.830;12.082;2023-03-04T15:53:43;99495.75;;;21.25;30.59
16100;BME280;8154;50.830;12.082;2023-03-04T15:56:13;99500.03;;;21.26;30.49
16100;BME280;8154;50.830;12.082;2023-03-04T15:58:41;99504.34;;;21.27;30.49
16100;BME280;8154;50.830;12.082;2023-03-04T16:01:12;99517.50;;;21.29;30.45
16100;BME280;8154;50.830;12.082;2023-03-04T16:03:39;99522.31;;;21.25;30.62
16100;BME280;8154;50.830;12.082;2023-03-04T16:06:13;99518.00;;;21.24;30.69
16100;BME280;8154;50.830;12.082;2023-03-04T16:08:40;99519.13;;;21.30;30.42
16100;BME280;8154;50.830;12.082;2023-03-04T16:11:13;99508.69;;;21.28;30.48
16100;BME280;8154;50.830;12.082;2023-03-04T16:13:42;99508.59;;;21.36;30.38
16100;BME280;8154;50.830;12.082;2023-03-04T16:16:11;99512.06;;;21.37;30.44
16100;BME280;8154;50.830;12.082;2023-03-04T16:18:38;99511.28;;;21.36;30.33
16100;BME280;8154;50.830;12.082;2023-03-04T16:21:06;99506.13;;;21.35;30.37
16100;BME280;8154;50.830;12.082;2023-03-04T16:23:38;99502.44;;;21.36;30.35
16100;BME280;8154;50.830;12.082;2023-03-04T16:26:10;99500.34;;;21.31;30.41
16100;BME280;8154;50.830;12.082;2023-03-04T16:28:37;99494.66;;;21.34;30.43
16100;BME280;8154;50.830;12.082;2023-03-04T16:31:04;99496.66;;;21.32;30.48
16100;BME280;8154;50.830;12.082;2023-03-04T16:33:30;99508.03;;;21.26;30.51
16100;BME280;8154;50.830;12.082;2023-03-04T16:35:56;99501.88;;;21.26;30.53
16100;BME280;8154;50.830;12.082;2023-03-04T16:38:25;99500.69;;;21.28;30.45
16100;BME280;8154;50.830;12.082;2023-03-04T16:40:54;99501.00;;;21.33;30.44
16100;BME280;8154;50.830;12.082;2023-03-04T16:43:21;99502.81;;;21.33;30.39
16100;BME280;8154;50.830;12.082;2023-03-04T16:45:47;99500.81;;;21.35;30.51
16100;BME280;8154;50.830;12.082;2023-03-04T17:21:59;99507.00;;;21.27;30.62
16100;BME280;8154;50.830;12.082;2023-03-04T18:13:28;99526.59;;;21.11;31.06
16100;BME280;8154;50.830;12.082;2023-03-04T18:46:39;99517.31;;;21.30;32.30
16100;BME280;8154;50.830;12.082;2023-03-04T18:49:08;99515.16;;;21.26;32.35
16100;BME280;8154;50.830;12.082;2023-03-04T18:51:35;99513.50;;;21.25;32.51
16100;BME280;8154;50.830;12.082;2023-03-04T18:54:02;99510.19;;;21.23;32.40
16100;BME280;8154;50.830;12.082;2023-03-04T18:56:34;99500.75;;;21.20;32.31
16100;BME280;8154;50.830;12.082;2023-03-04T18:59:12;99509.75;;;21.19;32.28
16100;BME280;8154;50.830;12.082;2023-03-04T19:01:41;99508.75;;;21.20;32.33
16100;BME280;8154;50.830;12.082;2023-03-04T19:04:08;99504.06;;;21.22;32.18
16100;BME280;8154;50.830;12.082;2023-03-04T19:06:35;99511.34;;;21.28;32.05
16100;BME280;8154;50.830;12.082;2023-03-04T19:09:01;99517.94;;;21.32;31.96
16100;BME280;8154;50.830;12.082;2023-03-04T19:11:28;99516.28;;;21.31;32.01
16100;BME280;8154;50.830;12.082;2023-03-04T19:13:58;99516.09;;;21.33;31.95
16100;BME280;8154;50.830;12.082;2023-03-04T19:16:24;99514.28;;;21.33;31.88
16100;BME280;8154;50.830;12.082;2023-03-04T19:18:52;99518.47;;;21.28;31.94
16100;BME280;8154;50.830;12.082;2023-03-04T19:21:20;99525.59;;;21.27;32.17
16100;BME280;8154;50.830;12.082;2023-03-04T19:23:47;99532.59;;;21.28;31.95
16100;BME280;8154;50.830;12.082;2023-03-04T19:26:13;99534.47;;;21.19;32.03
16100;BME280;8154;50.830;12.082;2023-03-04T19:28:40;99544.66;;;21.16;32.07
16100;BME280;8154;50.830;12.082;2023-03-04T19:31:09;99539.41;;;21.08;32.26
16100;BME280;8154;50.830;12.082;2023-03-04T19:33:38;99531.06;;;21.11;32.13
16100;BME280;8154;50.830;12.082;2023-03-04T19:36:07;99535.81;;;21.24;31.89
16100;BME280;8154;50.830;12.082;2023-03-04T19:38:35;99529.66;;;21.23;31.82
16100;BME280;8154;50.830;12.082;2023-03-04T19:41:11;99527.16;;;21.22;31.80
16100;BME280;8154;50.830;12.082;2023-03-04T19:43:38;99528.34;;;21.19;31.87
16100;BME280;8154;50.830;12.082;2023-03-04T19:46:07;99534.78;;;21.25;31.71
16100;BME280;8154;50.830;12.082;2023-03-04T19:48:37;99528.53;;;21.17;31.87
16100;BME280;8154;50.830;12.082;2023-03-04T19:51:13;99530.72;;;21.14;31.94
16100;BME280;8154;50.830;12.082;2023-03-04T19:53:41;99529.06;;;21.13;31.97
16100;BME280;8154;50.830;12.082;2023-03-04T19:56:08;99524.44;;;21.07;32.15
16100;BME280;8154;50.830;12.082;2023-03-04T19:58:36;99525.81;;;21.03;32.08
16100;BME280;8154;50.830;12.082;2023-03-04T20:01:05;99528.91;;;21.14;31.94
16100;BME280;8154;50.830;12.082;2023-03-04T20:03:32;99531.81;;;21.19;31.75
16100;BME280;8154;50.830;12.082;2023-03-04T20:06:06;99523.59;;;21.29;31.59
16100;BME280;8154;50.830;12.082;2023-03-04T20:42:30;99540.97;;;21.40;31.27
16100;BME280;8154;50.830;12.082;2023-03-04T20:44:58;99530.50;;;21.38;31.39
16100;BME280;8154;50.830;12.082;2023-03-04T20:47:26;99532.53;;;21.36;31.32
16100;BME280;8154;50.830;12.082;2023-03-04T20:49:56;99533.53;;;21.35;31.33
16100;BME280;8154;50.830;12.082;2023-03-04T20:52:23;99548.47;;;21.36;31.31
16100;BME280;8154;50.830;12.082;2023-03-04T20:54:51;99538.03;;;21.35;31.27
16100;BME280;8154;50.830;12.082;2023-03-04T20:57:20;99543.22;;;21.28;31.41
16100;BME280;8154;50.830;12.082;2023-03-04T20:59:53;99538.91;;;21.27;31.51
16100;BME280;8154;50.830;12.082;2023-03-04T21:02:21;99537.25;;;21.26;31.52
16100;BME280;8154;50.830;12.082;2023-03-04T21:04:48;99536.91;;;21.29;31.52
16100;BME280;8154;50.830;12.082;2023-03-04T21:07:16;99536.34;;;21.34;31.26
16100;BME280;8154;50.830;12.082;2023-03-04T22:08:16;99529.28;;;21.26;31.29
16100;BME280;8154;50.830;12.082;2023-03-04T22:10:42;99527.94;;;21.30;31.41
16100;BME280;8154;50.830;12.082;2023-03-04T22:13:10;99528.75;;;21.31;31.22
16100;BME280;8154;50.830;12.082;2023-03-04T22:15:39;99524.09;;;21.33;31.28
16100;BME280;8154;50.830;12.082;2023-03-04T22:18:09;99530.22;;;21.33;31.27
16100;BME280;8154;50.830;12.082;2023-03-04T22:20:37;99533.44;;;21.29;31.38
16100;BME280;8154;50.830;12.082;2023-03-04T22:23:04;99520.28;;;21.27;31.31
16100;BME280;8154;50.830;12.082;2023-03-04T22:25:34;99522.03;;;21.20;31.33
16100;BME280;8154;50.830;12.082;2023-03-04T22:28:00;99519.19;;;21.22;31.40
16100;BME280;8154;50.830;12.082;2023-03-04T22:30:27;99521.31;;;21.26;31.40
16100;BME280;8154;50.830;12.082;2023-03-04T22:32:53;99523.03;;;21.19;31.50
16100;BME280;8154;50.830;12.082;2023-03-04T22:35:20;99519.19;;;21.22;31.43
16100;BME280;8154;50.830;12.082;2023-03-04T22:37:46;99521.31;;;21.26;31.33
16100;BME280;8154;50.830;12.082;2023-03-04T22:40:12;99517.94;;;21.32;31.20
16100;BME280;8154;50.830;12.082;2023-03-04T22:42:41;99513.63;;;21.31;31.22
16100;BME280;8154;50.830;12.082;2023-03-04T22:45:09;99514.66;;;21.30;31.23
16100;BME280;8154;50.830;12.082;2023-03-04T22:47:37;99523.13;;;21.26;31.25
16100;BME280;8154;50.830;12.082;2023-03-04T22:50:05;99523.31;;;21.24;31.28
16100;BME280;8154;50.830;12.082;2023-03-04T22:52:31;99519.19;;;21.22;31.39
16100;BME280;8154;50.830;12.082;2023-03-04T22:54:58;99519.06;;;21.15;31.47
16100;BME280;8154;50.830;12.082;2023-03-04T22:57:25;99518.44;;;21.13;31.43
16100;BME280;8154;50.830;12.082;2023-03-04T22:59:51;99517.63;;;21.12;31.54
16100;BME280;8154;50.830;12.082;2023-03-04T23:02:17;99515.63;;;21.14;31.45
16100;BME280;8154;50.830;12.082;2023-03-04T23:04:43;99514.59;;;21.15;31.52
16100;BME280;8154;50.830;12.082;2023-03-04T23:07:09;99512.41;;;21.19;31.40
16100;BME280;8154;50.830;12.082;2023-03-04T23:09:35;99512.06;;;21.22;31.36
16100;BME280;8154;50.830;12.082;2023-03-04T23:12:01;99516.19;;;21.25;31.33
16100;BME280;8154;50.830;12.082;2023-03-04T23:14:28;99517.19;;;21.24;31.33
16100;BME280;8154;50.830;12.082;2023-03-04T23:16:54;99511.03;;;21.23;31.26
16100;BME280;8154;50.830;12.082;2023-03-04T23:19:21;99506.75;;;21.22;31.40
16100;BME280;8154;50.830;12.082;2023-03-04T23:21:47;99507.81;;;21.13;31.49
16100;BME280;8154;50.830;12.082;2023-03-04T23:24:14;99501.66;;;21.12;31.53
16100;BME280;8154;50.830;12.082;2023-03-04T23:26:41;99511.09;;;21.15;31.42
16100;BME280;8154;50.830;12.082;2023-03-04T23:29:10;99505.34;;;21.11;31.47
16100;BME280;8154;50.830;12.082;2023-03-04T23:31:37;99502.03;;;21.09;31.43
16100;BME280;8154;50.830;12.082;2023-03-04T23:34:04;99504.97;;;21.14;31.38
16100;BME280;8154;50.830;12.082;2023-03-04T23:36:34;99502.50;;;21.13;31.41
16100;BME280;8154;50.830;12.082;2023-03-04T23:39:01;99495.63;;;21.18;31.28
16100;BME280;8154;50.830;12.082;2023-03-04T23:41:29;99501.31;;;21.15;31.28
16100;BME280;8154;50.830;12.082;2023-03-04T23:43:57;99501.31;;;21.15;31.41
16100;BME280;8154;50.830;12.082;2023-03-04T23:46:25;99507.63;;;21.14;31.54
16100;BME280;8154;50.830;12.082;2023-03-04T23:48:52;99497.81;;;21.15;31.42
16100;BME280;8154;50.830;12.082;2023-03-04T23:51:21;99499.84;;;21.13;31.45
16100;BME280;8154;50.830;12.082;2023-03-04T23:53:48;99499.19;;;21.11;31.43
16100;BME280;8154;50.830;12.082;2023-03-04T23:56:19;99496.34;;;21.12;31.54
16100;BME280;8154;50.830;12.082;2023-03-04T23:58:46;99495.50;;;21.12;31.38
